createdAt,value
2018-03-19T00:00:29.476Z,5.30
2018-03-19T00:05:25.861Z,5.20
2018-03-19T00:07:53.976Z,5.20
2018-03-19T00:10:21.353Z,5.30
2018-03-19T00:12:48.872Z,5.50
2018-03-19T00:17:44.525Z,5.70
2018-03-19T00:20:12.637Z,5.70
2018-03-19T00:25:09.125Z,5.80
2018-03-19T00:27:36.515Z,5.80
2018-03-19T00:30:04.660Z,5.70
2018-03-19T00:32:32.056Z,5.50
2018-03-19T00:34:59.375Z,5.40
2018-03-19T00:39:55.035Z,5.60
2018-03-19T00:47:19.723Z,6.00
2018-03-19T00:49:47.048Z,6.00
2018-03-19T00:54:42.738Z,5.80
2018-03-19T00:57:10.827Z,5.90
2018-03-19T00:59:38.899Z,6.10
2018-03-19T01:02:06.265Z,6.20
2018-03-19T01:04:34.335Z,6.10
2018-03-19T01:07:01.722Z,6.10
2018-03-19T01:09:29.780Z,6.10
2018-03-19T01:11:57.150Z,6.10
2018-03-19T01:14:25.302Z,5.90
2018-03-19T01:16:52.649Z,5.90
2018-03-19T01:19:20.012Z,5.90
2018-03-19T01:21:48.313Z,5.80
2018-03-19T01:24:15.656Z,5.70
2018-03-19T01:26:42.996Z,5.50
2018-03-19T01:31:38.643Z,5.50
2018-03-19T01:34:05.993Z,5.70
2018-03-19T01:36:34.056Z,5.70
2018-03-19T01:39:01.497Z,5.70
2018-03-19T01:41:28.928Z,5.60
2018-03-19T01:43:57.080Z,5.70
2018-03-19T01:46:24.488Z,5.60
2018-03-19T01:51:20.082Z,5.70
2018-03-19T01:53:47.459Z,5.70
2018-03-19T01:56:15.530Z,5.60
2018-03-19T01:58:42.933Z,5.70
2018-03-19T02:03:39.230Z,5.90
2018-03-19T02:06:06.732Z,5.90
2018-03-19T02:08:34.120Z,5.90
2018-03-19T02:13:29.888Z,5.60
2018-03-19T02:18:25.532Z,5.40
2018-03-19T02:20:53.761Z,5.30
2018-03-19T02:23:22.140Z,5.30
2018-03-19T02:28:18.608Z,5.40
2018-03-19T02:30:46.005Z,5.40
2018-03-19T02:33:13.555Z,5.40
2018-03-19T02:35:41.012Z,5.50
2018-03-19T02:38:09.100Z,5.60
2018-03-19T02:43:04.723Z,5.70
2018-03-19T02:45:32.405Z,5.70
2018-03-19T02:48:00.676Z,5.60
2018-03-19T02:50:28.773Z,5.70
2018-03-19T02:52:56.131Z,5.70
2018-03-19T02:55:24.264Z,5.70
2018-03-19T02:57:51.609Z,5.70
2018-03-19T03:00:19.135Z,5.70
2018-03-19T03:05:15.040Z,5.60
2018-03-19T03:07:43.116Z,5.70
2018-03-19T03:10:11.192Z,5.80
2018-03-19T03:15:07.559Z,5.90
2018-03-19T03:17:35.304Z,5.90
2018-03-19T03:20:02.849Z,6.00
2018-03-19T03:24:59.246Z,5.80
2018-03-19T03:27:26.714Z,5.80
2018-03-19T03:29:54.068Z,5.80
2018-03-19T03:32:21.512Z,5.80
2018-03-19T03:34:49.600Z,5.80
2018-03-19T03:37:17.101Z,5.80
2018-03-19T03:39:44.458Z,5.80
2018-03-19T03:44:40.834Z,5.90
2018-03-19T03:47:09.082Z,6.10
2018-03-19T03:49:36.464Z,6.00
2018-03-19T03:52:03.823Z,5.80
2018-03-19T03:54:31.944Z,5.70
2018-03-19T03:57:00.033Z,5.90
2018-03-19T03:59:28.096Z,5.80
2018-03-19T04:04:24.511Z,5.80
2018-03-19T04:06:51.843Z,5.70
2018-03-19T04:09:19.205Z,5.80
2018-03-19T04:11:47.295Z,5.80
2018-03-19T04:14:14.954Z,5.80
2018-03-19T04:16:42.314Z,5.80
2018-03-19T04:21:37.936Z,5.80
2018-03-19T04:24:05.266Z,5.70
2018-03-19T04:31:29.371Z,5.80
2018-03-19T04:33:56.765Z,5.80
2018-03-19T04:36:24.145Z,5.50
2018-03-19T04:38:51.572Z,5.30
2018-03-19T04:43:47.206Z,5.30
2018-03-19T04:48:43.570Z,5.30
2018-03-19T04:53:39.169Z,5.30
2018-03-19T04:56:06.518Z,5.10
2018-03-19T04:58:33.967Z,4.90
2018-03-19T05:01:02.062Z,4.90
2018-03-19T05:03:29.496Z,5.00
2018-03-19T05:05:56.816Z,4.90
2018-03-19T05:08:24.224Z,4.90
2018-03-19T05:13:20.673Z,5.00
2018-03-19T05:15:48.967Z,4.90
2018-03-19T05:18:16.332Z,4.90
2018-03-19T05:20:44.526Z,5.10
2018-03-19T05:23:11.868Z,5.00
2018-03-19T05:30:35.925Z,5.00
2018-03-19T05:33:03.380Z,5.00
2018-03-19T05:37:59.007Z,5.20
2018-03-19T05:40:26.372Z,4.80
2018-03-19T05:42:53.744Z,4.80
2018-03-19T05:45:21.148Z,4.70
2018-03-19T05:47:49.228Z,4.80
2018-03-19T05:50:16.598Z,4.90
2018-03-19T05:52:43.933Z,4.90
2018-03-19T05:55:11.293Z,5.20
2018-03-19T05:57:39.391Z,5.30
2018-03-19T06:02:35.184Z,5.60
2018-03-19T06:05:02.529Z,5.40
2018-03-19T06:07:29.860Z,5.40
2018-03-19T06:09:57.364Z,5.30
2018-03-19T06:12:24.975Z,5.40
2018-03-19T06:14:52.592Z,5.50
2018-03-19T06:17:20.213Z,5.30
2018-03-19T06:19:47.784Z,5.20
2018-03-19T06:22:15.187Z,5.10
2018-03-19T06:27:11.607Z,5.40
2018-03-19T06:29:39.333Z,5.50
2018-03-19T06:32:07.612Z,5.60
2018-03-19T06:34:35.712Z,5.80
2018-03-19T06:37:03.213Z,5.90
2018-03-19T06:39:30.592Z,6.00
2018-03-19T06:41:58.716Z,6.00
2018-03-19T06:46:54.522Z,6.00
2018-03-19T06:49:21.883Z,6.10
2018-03-19T06:59:15.115Z,6.10
2018-03-19T07:01:42.492Z,6.10
2018-03-19T07:04:10.771Z,6.10
2018-03-19T07:06:38.176Z,6.30
2018-03-19T07:09:05.541Z,6.30
2018-03-19T07:11:32.978Z,6.20
2018-03-19T07:14:00.360Z,6.40
2018-03-19T07:18:56.797Z,6.30
2018-03-19T07:21:24.181Z,6.40
2018-03-19T07:26:19.828Z,6.60
2018-03-19T07:28:47.248Z,6.70
2018-03-19T07:31:15.336Z,6.60
2018-03-19T07:33:42.755Z,6.70
2018-03-19T07:38:39.118Z,6.70
2018-03-19T07:41:06.469Z,6.90
2018-03-19T07:43:34.651Z,6.90
2018-03-19T07:46:02.041Z,6.80
2018-03-19T07:55:55.162Z,6.70
2018-03-19T07:58:22.517Z,6.80
2018-03-19T08:03:18.862Z,6.90
2018-03-19T08:05:47.037Z,7.00
2018-03-19T08:08:14.416Z,7.00
2018-03-19T08:10:42.574Z,6.70
2018-03-19T08:15:39.177Z,6.70
2018-03-19T08:18:06.625Z,7.00
2018-03-19T08:20:34.093Z,7.20
2018-03-19T08:23:02.167Z,7.30
2018-03-19T08:25:29.528Z,7.30
2018-03-19T08:27:57.626Z,7.40
2018-03-19T08:30:25.760Z,7.50
2018-03-19T08:35:22.183Z,7.90
2018-03-19T08:37:49.534Z,7.80
2018-03-19T08:40:16.921Z,7.80
2018-03-19T08:45:13.293Z,7.90
2018-03-19T08:52:37.231Z,8.10
2018-03-19T08:55:04.631Z,8.10
2018-03-19T08:57:32.782Z,8.00
2018-03-19T09:00:00.164Z,8.10
2018-03-19T09:02:27.521Z,8.00
2018-03-19T09:04:54.929Z,8.20
2018-03-19T09:07:23.057Z,8.30
2018-03-19T09:09:50.384Z,8.20
2018-03-19T09:12:17.770Z,8.00
2018-03-19T09:14:45.176Z,7.90
2018-03-19T09:17:12.558Z,7.90
2018-03-19T09:22:08.260Z,7.90
2018-03-19T09:24:35.596Z,7.90
2018-03-19T09:32:00.300Z,8.30
2018-03-19T09:36:56.817Z,8.20
2018-03-19T09:39:24.270Z,8.10
2018-03-19T09:41:51.617Z,8.00
2018-03-19T09:44:19.090Z,7.90
2018-03-19T09:46:46.433Z,8.10
2018-03-19T09:51:42.048Z,8.40
2018-03-19T09:54:09.412Z,8.20
2018-03-19T09:56:36.727Z,8.30
2018-03-19T09:59:04.080Z,8.20
2018-03-19T10:01:32.179Z,8.10
2018-03-19T10:03:59.533Z,8.30
2018-03-19T10:06:26.908Z,8.20
2018-03-19T10:11:22.578Z,8.50
2018-03-19T10:16:19.182Z,8.20
2018-03-19T10:18:46.655Z,8.20
2018-03-19T10:21:13.997Z,8.30
2018-03-19T10:26:10.464Z,8.20
2018-03-19T10:28:38.045Z,8.20
2018-03-19T10:31:05.373Z,8.10
2018-03-19T10:36:01.011Z,8.00
2018-03-19T10:38:29.176Z,7.90
2018-03-19T10:40:56.649Z,8.00
2018-03-19T10:43:23.990Z,8.00
2018-03-19T10:45:51.358Z,7.90
2018-03-19T10:50:47.887Z,7.90
2018-03-19T10:53:16.013Z,8.10
2018-03-19T10:55:43.377Z,8.20
2018-03-19T10:58:10.897Z,8.10
2018-03-19T11:03:07.439Z,8.40
2018-03-19T11:05:40.881Z,8.70
2018-03-19T11:08:08.274Z,8.70
2018-03-19T11:10:35.619Z,8.70
2018-03-19T11:13:03.775Z,8.70
2018-03-19T11:15:31.164Z,8.70
2018-03-19T11:17:58.707Z,8.80
2018-03-19T11:20:26.039Z,8.80
2018-03-19T11:22:53.462Z,8.70
2018-03-19T11:25:21.692Z,8.60
2018-03-19T11:27:49.075Z,8.60
2018-03-19T11:30:17.156Z,8.50
2018-03-19T11:32:45.316Z,8.70
2018-03-19T11:35:13.712Z,8.80
2018-03-19T11:37:41.798Z,8.80
2018-03-19T11:40:09.899Z,8.90
2018-03-19T11:42:37.994Z,8.90
2018-03-19T11:47:34.479Z,9.00
2018-03-19T11:52:31.116Z,9.00
2018-03-19T11:54:58.585Z,8.90
2018-03-19T11:59:54.212Z,9.10
2018-03-19T12:02:22.358Z,9.00
2018-03-19T12:07:18.780Z,8.80
2018-03-19T12:09:46.164Z,8.80
2018-03-19T12:12:13.539Z,8.90
2018-03-19T12:14:41.675Z,9.00
2018-03-19T12:17:09.043Z,9.10
2018-03-19T12:19:36.491Z,9.10
2018-03-19T12:22:03.824Z,9.00
2018-03-19T12:24:32.052Z,8.90
2018-03-19T12:26:59.475Z,8.90
2018-03-19T12:31:55.845Z,8.70
2018-03-19T12:34:24.032Z,8.60
2018-03-19T12:36:52.108Z,8.60
2018-03-19T12:41:48.594Z,8.70
2018-03-19T12:44:16.036Z,8.70
2018-03-19T12:46:44.156Z,8.60
2018-03-19T12:51:40.575Z,8.70
2018-03-19T12:54:08.113Z,8.60
2018-03-19T12:56:35.448Z,8.40
2018-03-19T12:59:03.628Z,8.40
2018-03-19T13:01:31.011Z,8.30
2018-03-19T13:06:26.763Z,8.40
2018-03-19T13:08:54.154Z,8.40
2018-03-19T13:13:50.565Z,8.40
2018-03-19T13:16:17.968Z,8.40
2018-03-19T13:21:13.549Z,8.30
2018-03-19T13:23:40.899Z,8.40
2018-03-19T13:28:37.232Z,8.60
2018-03-19T13:31:05.346Z,8.60
2018-03-19T13:33:32.753Z,8.50
2018-03-19T13:36:00.908Z,8.50
2018-03-19T13:38:29.041Z,8.50
2018-03-19T13:40:57.141Z,8.50
2018-03-19T13:43:24.556Z,8.60
2018-03-19T13:45:51.916Z,8.60
2018-03-19T13:48:20.021Z,8.50
2018-03-19T13:50:48.389Z,8.50
2018-03-19T13:53:15.708Z,8.40
2018-03-19T13:55:43.812Z,8.40
2018-03-19T14:00:40.342Z,8.30
2018-03-19T14:03:08.409Z,8.30
2018-03-19T14:05:36.663Z,8.40
2018-03-19T14:10:33.109Z,8.40
2018-03-19T14:13:00.505Z,8.60
2018-03-19T14:17:56.208Z,8.20
2018-03-19T14:20:23.627Z,8.10
2018-03-19T14:22:51.730Z,8.20
2018-03-19T14:25:19.106Z,8.30
2018-03-19T14:30:15.492Z,8.30
2018-03-19T14:35:11.216Z,8.20
2018-03-19T14:40:07.620Z,8.20
2018-03-19T14:42:34.987Z,8.10
2018-03-19T14:49:59.671Z,8.10
2018-03-19T14:52:27.801Z,8.00
2018-03-19T14:54:55.153Z,8.00
2018-03-19T14:59:51.580Z,8.00
2018-03-19T15:02:19.008Z,8.20
2018-03-19T15:07:14.761Z,8.10
2018-03-19T15:12:11.140Z,8.00
2018-03-19T15:14:38.568Z,7.90
2018-03-19T15:19:35.095Z,7.80
2018-03-19T15:24:31.508Z,7.80
2018-03-19T15:29:27.912Z,7.70
2018-03-19T15:34:23.641Z,7.60
2018-03-19T15:36:50.984Z,7.70
2018-03-19T15:39:19.110Z,7.80
2018-03-19T15:41:47.188Z,7.80
2018-03-19T15:44:15.317Z,7.80
2018-03-19T15:49:10.962Z,7.80
2018-03-19T15:51:39.065Z,7.80
2018-03-19T15:59:03.517Z,7.80
2018-03-19T16:01:31.671Z,7.60
2018-03-19T16:03:59.156Z,7.60
2018-03-19T16:06:26.529Z,7.60
2018-03-19T16:08:53.968Z,7.60
2018-03-19T16:11:21.370Z,7.60
2018-03-19T16:16:24.121Z,7.60
2018-03-19T16:18:51.481Z,7.50
2018-03-19T16:21:18.893Z,7.70
2018-03-19T16:23:47.029Z,7.80
2018-03-19T16:26:14.409Z,7.90
2018-03-19T16:28:42.492Z,7.70
2018-03-19T16:31:10.655Z,7.60
2018-03-19T16:41:03.033Z,7.80
2018-03-19T16:43:31.164Z,7.70
2018-03-19T16:45:58.529Z,7.60
2018-03-19T16:48:25.992Z,7.70
2018-03-19T16:50:53.341Z,7.70
2018-03-19T16:58:17.299Z,7.90
2018-03-19T17:00:44.775Z,7.80
2018-03-19T17:03:14.930Z,7.70
2018-03-19T17:05:51.323Z,7.70
2018-03-19T17:08:18.881Z,7.60
2018-03-19T17:10:46.986Z,7.50
2018-03-19T17:13:14.406Z,7.60
2018-03-19T17:15:42.684Z,7.70
2018-03-19T17:18:10.967Z,7.80
2018-03-19T17:20:38.471Z,7.90
2018-03-19T17:23:06.665Z,7.80
2018-03-19T17:25:34.061Z,7.60
2018-03-19T17:28:01.482Z,7.40
2018-03-19T17:30:28.930Z,7.40
2018-03-19T17:32:56.331Z,7.40
2018-03-19T17:35:23.738Z,7.40
2018-03-19T17:37:51.237Z,7.50
2018-03-19T17:40:18.721Z,7.40
2018-03-19T17:42:46.138Z,7.50
2018-03-19T17:45:13.512Z,7.70
2018-03-19T17:47:40.945Z,7.80
2018-03-19T17:50:08.465Z,7.80
2018-03-19T17:52:36.021Z,7.90
2018-03-19T17:55:04.340Z,8.00
2018-03-19T17:57:32.466Z,7.90
2018-03-19T17:59:59.910Z,7.90
2018-03-19T18:02:27.267Z,8.00
2018-03-19T18:04:54.730Z,7.90
2018-03-19T18:07:22.168Z,7.70
2018-03-19T18:09:49.598Z,7.70
2018-03-19T18:12:17.169Z,7.70
2018-03-19T18:14:44.842Z,7.60
2018-03-19T18:17:12.258Z,7.70
2018-03-19T18:19:40.072Z,7.80
2018-03-19T18:22:08.471Z,7.50
2018-03-19T18:24:36.906Z,7.20
2018-03-19T18:27:04.402Z,7.20
2018-03-19T18:29:31.872Z,7.30
2018-03-19T18:31:59.307Z,7.20
2018-03-19T18:34:26.813Z,6.90
2018-03-19T18:36:54.961Z,7.10
2018-03-19T18:39:22.409Z,7.30
2018-03-19T18:41:49.810Z,7.40
2018-03-19T18:44:17.250Z,7.30
2018-03-19T18:46:44.654Z,7.30
2018-03-19T18:49:12.113Z,7.40
2018-03-19T18:51:39.458Z,7.30
2018-03-19T18:54:06.863Z,7.20
2018-03-19T18:56:34.486Z,7.00
2018-03-19T18:59:01.896Z,7.00
2018-03-19T19:01:29.300Z,7.00
2018-03-19T19:03:56.667Z,7.10
2018-03-19T19:06:24.216Z,7.10
2018-03-19T19:08:51.611Z,6.90
2018-03-19T19:11:19.015Z,6.90
2018-03-19T19:13:46.565Z,6.90
2018-03-19T19:16:13.964Z,7.00
2018-03-19T19:18:41.924Z,7.00
2018-03-19T19:21:09.483Z,7.20
2018-03-19T19:23:36.895Z,7.20
2018-03-19T19:26:04.361Z,7.10
2018-03-19T19:28:31.958Z,6.90
2018-03-19T19:33:28.549Z,6.50
2018-03-19T19:35:56.764Z,6.40
2018-03-19T19:38:24.648Z,6.50
2018-03-19T19:40:52.067Z,6.60
2018-03-19T19:43:19.505Z,6.60
2018-03-19T19:45:46.910Z,6.60
2018-03-19T19:48:14.311Z,6.80
2018-03-19T19:50:41.756Z,6.90
2018-03-19T19:53:09.359Z,7.10
2018-03-19T19:55:36.969Z,7.20
2018-03-19T19:58:06.861Z,7.10
2018-03-19T20:00:34.247Z,6.90
2018-03-19T20:03:01.694Z,7.00
2018-03-19T20:05:29.839Z,7.00
2018-03-19T20:07:58.205Z,7.10
2018-03-19T20:10:25.606Z,7.00
2018-03-19T20:12:53.012Z,6.90
2018-03-19T20:15:20.580Z,6.90
2018-03-19T20:17:47.937Z,6.80
2018-03-19T20:20:15.352Z,6.90
2018-03-19T20:22:42.804Z,6.90
2018-03-19T20:25:10.192Z,6.90
2018-03-19T20:27:37.564Z,7.10
2018-03-19T20:30:05.049Z,7.20
2018-03-19T20:32:32.500Z,7.00
2018-03-19T20:37:28.529Z,7.00
2018-03-19T20:42:24.456Z,6.80
2018-03-19T20:44:51.853Z,6.60
2018-03-19T20:47:19.352Z,6.50
2018-03-19T20:49:47.712Z,6.40
2018-03-19T20:52:15.107Z,6.30
2018-03-19T20:57:12.033Z,6.40
2018-03-19T20:59:39.432Z,6.60
2018-03-19T21:02:06.851Z,6.70
2018-03-19T21:04:34.987Z,6.40
2018-03-19T21:09:31.412Z,6.30
2018-03-19T21:11:59.062Z,6.50
2018-03-19T21:16:55.507Z,6.60
2018-03-19T21:19:22.858Z,6.60
2018-03-19T21:21:50.431Z,6.60
2018-03-19T21:31:43.580Z,6.40
2018-03-19T21:34:11.739Z,6.40
2018-03-19T21:36:39.852Z,6.40
2018-03-19T21:39:08.038Z,6.40
2018-03-19T21:41:35.420Z,6.50
2018-03-19T21:44:02.932Z,6.60
2018-03-19T21:46:30.306Z,6.80
2018-03-19T21:48:57.732Z,6.80
2018-03-19T21:51:25.837Z,6.70
2018-03-19T21:56:22.335Z,6.60
2018-03-19T22:01:18.888Z,6.60
2018-03-19T22:03:46.265Z,6.80
2018-03-19T22:06:13.616Z,6.80
2018-03-19T22:08:41.695Z,6.60
2018-03-19T22:11:09.119Z,6.60
2018-03-19T22:13:37.269Z,6.70
2018-03-19T22:18:33.678Z,6.70
2018-03-19T22:21:01.076Z,6.80
2018-03-19T22:23:29.252Z,6.80
2018-03-19T22:28:24.932Z,6.70
2018-03-19T22:30:52.445Z,6.60
2018-03-19T22:33:20.740Z,6.50
2018-03-19T22:38:17.121Z,6.60
2018-03-19T22:43:13.529Z,6.70
2018-03-19T22:48:09.892Z,6.60
2018-03-19T22:50:38.116Z,6.60
2018-03-19T22:55:34.563Z,6.60
2018-03-19T23:00:30.945Z,6.70
2018-03-19T23:05:27.328Z,6.60
2018-03-19T23:10:23.099Z,6.40
2018-03-19T23:15:18.880Z,6.30
2018-03-19T23:20:14.575Z,6.30
2018-03-19T23:22:41.929Z,6.20
2018-03-19T23:27:37.696Z,6.00
2018-03-19T23:32:34.496Z,6.00
2018-03-19T23:35:01.855Z,6.00
2018-03-19T23:37:29.296Z,6.00
2018-03-19T23:42:25.692Z,6.00
2018-03-19T23:44:53.007Z,6.10
2018-03-19T23:47:20.367Z,6.10
2018-03-19T23:52:16.000Z,6.00
2018-03-19T23:54:43.495Z,6.10
2018-03-19T23:57:11.618Z,6.10
2018-03-19T23:59:38.958Z,6.20
